sensor_id;sensor_type;location;lat;lon;timestamp;P1;durP1;ratioP1;P2;durP2;ratioP2
27408;SDS011;20413;50.782;7.152;2022-12-20T00:01:22;2.22;;;1.67;;
27408;SDS011;20413;50.782;7.152;2022-12-20T00:03:53;3.10;;;1.40;;
27408;SDS011;20413;50.782;7.152;2022-12-20T00:06:23;1.60;;;1.20;;
27408;SDS011;20413;50.782;7.152;2022-12-20T00:08:56;4.20;;;2.00;;
27408;SDS011;20413;50.782;7.152;2022-12-20T00:11:27;2.22;;;1.50;;
27408;SDS011;20413;50.782;7.152;2022-12-20T00:13:54;4.07;;;1.52;;
27408;SDS011;20413;50.782;7.152;2022-12-20T00:16:20;3.10;;;2.00;;
27408;SDS011;20413;50.782;7.152;2022-12-20T00:18:49;1.35;;;1.20;;
27408;SDS011;20413;50.782;7.152;2022-12-20T00:21:17;4.18;;;1.70;;
27408;SDS011;20413;50.782;7.152;2022-12-20T00:23:44;2.40;;;1.23;;
27408;SDS011;20413;50.782;7.152;2022-12-20T00:26:10;2.03;;;1.50;;
27408;SDS011;20413;50.782;7.152;2022-12-20T00:28:39;2.53;;;1.40;;
27408;SDS011;20413;50.782;7.152;2022-12-20T00:31:06;2.75;;;1.33;;
27408;SDS011;20413;50.782;7.152;2022-12-20T00:33:34;3.88;;;1.80;;
27408;SDS011;20413;50.782;7.152;2022-12-20T00:36:01;3.13;;;1.80;;
27408;SDS011;20413;50.782;7.152;2022-12-20T00:38:27;5.57;;;2.08;;
27408;SDS011;20413;50.782;7.152;2022-12-20T00:41:03;3.58;;;1.65;;
27408;SDS011;20413;50.782;7.152;2022-12-20T00:43:30;2.47;;;1.88;;
27408;SDS011;20413;50.782;7.152;2022-12-20T00:45:57;7.18;;;1.90;;
27408;SDS011;20413;50.782;7.152;2022-12-20T00:48:23;4.25;;;1.95;;
27408;SDS011;20413;50.782;7.152;2022-12-20T00:50:49;4.45;;;3.25;;
27408;SDS011;20413;50.782;7.152;2022-12-20T00:53:16;6.53;;;4.00;;
27408;SDS011;20413;50.782;7.152;2022-12-20T00:55:42;5.55;;;4.03;;
27408;SDS011;20413;50.782;7.152;2022-12-20T00:58:09;6.73;;;4.40;;
27408;SDS011;20413;50.782;7.152;2022-12-20T01:00:35;9.32;;;4.68;;
27408;SDS011;20413;50.782;7.152;2022-12-20T01:03:01;6.95;;;4.72;;
27408;SDS011;20413;50.782;7.152;2022-12-20T01:05:27;6.93;;;4.88;;
27408;SDS011;20413;50.782;7.152;2022-12-20T01:07:59;10.05;;;5.22;;
27408;SDS011;20413;50.782;7.152;2022-12-20T01:10:28;10.43;;;5.43;;
27408;SDS011;20413;50.782;7.152;2022-12-20T01:12:54;9.13;;;5.35;;
27408;SDS011;20413;50.782;7.152;2022-12-20T01:15:19;7.25;;;4.80;;
27408;SDS011;20413;50.782;7.152;2022-12-20T01:17:46;8.30;;;5.22;;
27408;SDS011;20413;50.782;7.152;2022-12-20T01:20:12;8.27;;;5.50;;
27408;SDS011;20413;50.782;7.152;2022-12-20T01:22:41;10.05;;;5.32;;
27408;SDS011;20413;50.782;7.152;2022-12-20T01:25:06;10.20;;;4.97;;
27408;SDS011;20413;50.782;7.152;2022-12-20T01:27:32;9.02;;;4.68;;
27408;SDS011;20413;50.782;7.152;2022-12-20T01:29:58;8.38;;;5.13;;
27408;SDS011;20413;50.782;7.152;2022-12-20T01:32:23;7.28;;;4.63;;
27408;SDS011;20413;50.782;7.152;2022-12-20T01:34:52;9.80;;;5.10;;
27408;SDS011;20413;50.782;7.152;2022-12-20T01:37:18;6.32;;;5.00;;
27408;SDS011;20413;50.782;7.152;2022-12-20T01:39:43;7.57;;;5.18;;
27408;SDS011;20413;50.782;7.152;2022-12-20T01:42:12;6.22;;;4.53;;
27408;SDS011;20413;50.782;7.152;2022-12-20T01:47:07;7.35;;;5.28;;
27408;SDS011;20413;50.782;7.152;2022-12-20T01:49:36;9.37;;;5.60;;
27408;SDS011;20413;50.782;7.152;2022-12-20T01:57:15;11.13;;;5.18;;
27408;SDS011;20413;50.782;7.152;2022-12-20T01:59:45;11.32;;;5.22;;
27408;SDS011;20413;50.782;7.152;2022-12-20T02:02:11;11.13;;;5.38;;
27408;SDS011;20413;50.782;7.152;2022-12-20T02:04:37;8.65;;;5.40;;
27408;SDS011;20413;50.782;7.152;2022-12-20T02:07:03;8.48;;;5.25;;
27408;SDS011;20413;50.782;7.152;2022-12-20T02:09:31;9.40;;;5.70;;
27408;SDS011;20413;50.782;7.152;2022-12-20T02:12:09;8.95;;;5.63;;
27408;SDS011;20413;50.782;7.152;2022-12-20T02:17:27;12.60;;;5.75;;
27408;SDS011;20413;50.782;7.152;2022-12-20T02:28:37;8.93;;;4.93;;
27408;SDS011;20413;50.782;7.152;2022-12-20T02:31:29;8.98;;;4.68;;
27408;SDS011;20413;50.782;7.152;2022-12-20T02:34:00;9.00;;;4.70;;
27408;SDS011;20413;50.782;7.152;2022-12-20T02:36:27;7.80;;;4.38;;
27408;SDS011;20413;50.782;7.152;2022-12-20T02:38:53;6.43;;;4.40;;
27408;SDS011;20413;50.782;7.152;2022-12-20T02:41:20;5.50;;;3.88;;
27408;SDS011;20413;50.782;7.152;2022-12-20T02:43:52;6.22;;;4.25;;
27408;SDS011;20413;50.782;7.152;2022-12-20T02:46:40;5.95;;;3.80;;
27408;SDS011;20413;50.782;7.152;2022-12-20T02:49:08;7.93;;;3.88;;
27408;SDS011;20413;50.782;7.152;2022-12-20T02:51:39;4.63;;;3.13;;
27408;SDS011;20413;50.782;7.152;2022-12-20T02:54:08;4.80;;;3.00;;
27408;SDS011;20413;50.782;7.152;2022-12-20T02:56:35;8.95;;;3.80;;
27408;SDS011;20413;50.782;7.152;2022-12-20T02:59:13;6.57;;;2.83;;
27408;SDS011;20413;50.782;7.152;2022-12-20T03:02:03;8.30;;;3.00;;
27408;SDS011;20413;50.782;7.152;2022-12-20T03:04:34;4.47;;;3.33;;
27408;SDS011;20413;50.782;7.152;2022-12-20T03:07:10;5.18;;;3.00;;
27408;SDS011;20413;50.782;7.152;2022-12-20T03:09:41;5.93;;;3.10;;
27408;SDS011;20413;50.782;7.152;2022-12-20T03:12:09;4.30;;;3.13;;
27408;SDS011;20413;50.782;7.152;2022-12-20T03:14:36;6.97;;;3.47;;
27408;SDS011;20413;50.782;7.152;2022-12-20T03:17:02;4.65;;;3.10;;
27408;SDS011;20413;50.782;7.152;2022-12-20T03:19:29;7.53;;;3.40;;
27408;SDS011;20413;50.782;7.152;2022-12-20T03:21:55;6.80;;;3.67;;
27408;SDS011;20413;50.782;7.152;2022-12-20T03:24:21;6.05;;;4.00;;
27408;SDS011;20413;50.782;7.152;2022-12-20T03:26:47;5.40;;;3.10;;
27408;SDS011;20413;50.782;7.152;2022-12-20T03:29:12;7.97;;;4.10;;
27408;SDS011;20413;50.782;7.152;2022-12-20T03:31:38;6.40;;;4.30;;
27408;SDS011;20413;50.782;7.152;2022-12-20T03:34:04;9.77;;;4.15;;
27408;SDS011;20413;50.782;7.152;2022-12-20T03:36:30;6.03;;;4.32;;
27408;SDS011;20413;50.782;7.152;2022-12-20T03:38:56;6.38;;;4.00;;
27408;SDS011;20413;50.782;7.152;2022-12-20T03:41:22;7.93;;;4.18;;
27408;SDS011;20413;50.782;7.152;2022-12-20T03:43:48;7.32;;;3.97;;
27408;SDS011;20413;50.782;7.152;2022-12-20T03:46:14;7.25;;;3.97;;
27408;SDS011;20413;50.782;7.152;2022-12-20T03:48:39;7.53;;;4.13;;
27408;SDS011;20413;50.782;7.152;2022-12-20T03:51:05;8.80;;;4.03;;
27408;SDS011;20413;50.782;7.152;2022-12-20T03:53:34;7.05;;;4.45;;
27408;SDS011;20413;50.782;7.152;2022-12-20T03:55:59;9.43;;;3.97;;
27408;SDS011;20413;50.782;7.152;2022-12-20T03:58:25;7.22;;;3.50;;
27408;SDS011;20413;50.782;7.152;2022-12-20T04:00:50;8.10;;;3.70;;
27408;SDS011;20413;50.782;7.152;2022-12-20T04:03:16;5.53;;;3.58;;
27408;SDS011;20413;50.782;7.152;2022-12-20T04:05:42;5.80;;;3.33;;
27408;SDS011;20413;50.782;7.152;2022-12-20T04:08:08;6.03;;;3.58;;
27408;SDS011;20413;50.782;7.152;2022-12-20T04:10:33;4.47;;;3.50;;
27408;SDS011;20413;50.782;7.152;2022-12-20T04:13:22;8.35;;;3.72;;
27408;SDS011;20413;50.782;7.152;2022-12-20T04:15:47;7.35;;;3.47;;
27408;SDS011;20413;50.782;7.152;2022-12-20T04:18:16;5.70;;;3.63;;
27408;SDS011;20413;50.782;7.152;2022-12-20T04:20:42;5.63;;;3.63;;
27408;SDS011;20413;50.782;7.152;2022-12-20T04:23:07;9.07;;;3.75;;
27408;SDS011;20413;50.782;7.152;2022-12-20T04:25:33;7.70;;;3.75;;
27408;SDS011;20413;50.782;7.152;2022-12-20T04:28:01;8.73;;;3.70;;
27408;SDS011;20413;50.782;7.152;2022-12-20T04:30:27;5.50;;;3.63;;
27408;SDS011;20413;50.782;7.152;2022-12-20T04:32:52;5.07;;;3.45;;
27408;SDS011;20413;50.782;7.152;2022-12-20T04:35:19;5.57;;;3.47;;
27408;SDS011;20413;50.782;7.152;2022-12-20T04:37:45;7.07;;;3.60;;
27408;SDS011;20413;50.782;7.152;2022-12-20T04:40:11;6.63;;;3.60;;
27408;SDS011;20413;50.782;7.152;2022-12-20T04:42:37;8.30;;;4.20;;
27408;SDS011;20413;50.782;7.152;2022-12-20T04:45:02;8.32;;;4.43;;
27408;SDS011;20413;50.782;7.152;2022-12-20T04:47:28;7.00;;;4.28;;
27408;SDS011;20413;50.782;7.152;2022-12-20T04:49:54;8.10;;;4.40;;
27408;SDS011;20413;50.782;7.152;2022-12-20T04:52:20;9.48;;;4.72;;
27408;SDS011;20413;50.782;7.152;2022-12-20T04:55:07;7.30;;;4.35;;
27408;SDS011;20413;50.782;7.152;2022-12-20T04:57:33;6.93;;;4.80;;
27408;SDS011;20413;50.782;7.152;2022-12-20T04:59:59;9.40;;;4.85;;
27408;SDS011;20413;50.782;7.152;2022-12-20T05:02:24;9.25;;;5.35;;
27408;SDS011;20413;50.782;7.152;2022-12-20T05:04:50;7.80;;;5.00;;
27408;SDS011;20413;50.782;7.152;2022-12-20T05:07:15;10.45;;;5.10;;
27408;SDS011;20413;50.782;7.152;2022-12-20T05:09:41;7.03;;;4.68;;
27408;SDS011;20413;50.782;7.152;2022-12-20T05:12:07;11.35;;;5.72;;
27408;SDS011;20413;50.782;7.152;2022-12-20T05:17:00;8.40;;;5.15;;
27408;SDS011;20413;50.782;7.152;2022-12-20T05:19:26;9.00;;;5.00;;
27408;SDS011;20413;50.782;7.152;2022-12-20T05:21:51;8.93;;;5.13;;
27408;SDS011;20413;50.782;7.152;2022-12-20T05:24:39;6.75;;;5.32;;
27408;SDS011;20413;50.782;7.152;2022-12-20T05:27:23;10.57;;;5.78;;
27408;SDS011;20413;50.782;7.152;2022-12-20T05:29:48;9.65;;;5.13;;
27408;SDS011;20413;50.782;7.152;2022-12-20T05:32:14;9.30;;;6.00;;
27408;SDS011;20413;50.782;7.152;2022-12-20T05:34:39;10.75;;;5.47;;
27408;SDS011;20413;50.782;7.152;2022-12-20T05:37:08;7.82;;;5.15;;
27408;SDS011;20413;50.782;7.152;2022-12-20T05:39:34;7.53;;;5.32;;
27408;SDS011;20413;50.782;7.152;2022-12-20T05:42:02;11.20;;;5.72;;
27408;SDS011;20413;50.782;7.152;2022-12-20T05:44:28;11.45;;;4.80;;
27408;SDS011;20413;50.782;7.152;2022-12-20T05:46:53;11.63;;;5.78;;
27408;SDS011;20413;50.782;7.152;2022-12-20T05:49:19;9.05;;;5.45;;
27408;SDS011;20413;50.782;7.152;2022-12-20T05:51:45;7.65;;;4.38;;
27408;SDS011;20413;50.782;7.152;2022-12-20T05:54:10;8.82;;;4.30;;
27408;SDS011;20413;50.782;7.152;2022-12-20T05:56:38;7.95;;;5.00;;
27408;SDS011;20413;50.782;7.152;2022-12-20T06:01:29;6.53;;;5.05;;
27408;SDS011;20413;50.782;7.152;2022-12-20T06:03:58;11.35;;;5.18;;
27408;SDS011;20413;50.782;7.152;2022-12-20T06:06:24;11.23;;;6.43;;
27408;SDS011;20413;50.782;7.152;2022-12-20T06:08:49;7.85;;;5.47;;
27408;SDS011;20413;50.782;7.152;2022-12-20T06:11:18;10.38;;;5.88;;
27408;SDS011;20413;50.782;7.152;2022-12-20T06:13:44;8.73;;;5.50;;
27408;SDS011;20413;50.782;7.152;2022-12-20T06:16:10;9.95;;;5.32;;
27408;SDS011;20413;50.782;7.152;2022-12-20T06:18:35;10.52;;;5.38;;
27408;SDS011;20413;50.782;7.152;2022-12-20T06:21:01;10.05;;;5.40;;
27408;SDS011;20413;50.782;7.152;2022-12-20T06:23:27;9.82;;;5.38;;
27408;SDS011;20413;50.782;7.152;2022-12-20T06:25:52;9.93;;;5.40;;
27408;SDS011;20413;50.782;7.152;2022-12-20T06:28:18;10.27;;;5.32;;
27408;SDS011;20413;50.782;7.152;2022-12-20T06:30:52;10.95;;;5.78;;
27408;SDS011;20413;50.782;7.152;2022-12-20T06:33:19;10.65;;;5.22;;
27408;SDS011;20413;50.782;7.152;2022-12-20T06:35:45;10.73;;;5.30;;
27408;SDS011;20413;50.782;7.152;2022-12-20T06:38:10;11.18;;;5.20;;
27408;SDS011;20413;50.782;7.152;2022-12-20T06:40:36;10.68;;;5.80;;
27408;SDS011;20413;50.782;7.152;2022-12-20T06:43:02;9.27;;;6.07;;
27408;SDS011;20413;50.782;7.152;2022-12-20T06:45:27;8.07;;;5.50;;
27408;SDS011;20413;50.782;7.152;2022-12-20T06:47:53;10.90;;;5.90;;
27408;SDS011;20413;50.782;7.152;2022-12-20T06:50:18;11.27;;;6.10;;
27408;SDS011;20413;50.782;7.152;2022-12-20T06:52:44;8.23;;;5.97;;
27408;SDS011;20413;50.782;7.152;2022-12-20T06:55:09;9.05;;;5.50;;
27408;SDS011;20413;50.782;7.152;2022-12-20T06:57:35;9.23;;;5.50;;
27408;SDS011;20413;50.782;7.152;2022-12-20T07:00:01;9.50;;;5.32;;
27408;SDS011;20413;50.782;7.152;2022-12-20T07:02:27;9.93;;;5.15;;
27408;SDS011;20413;50.782;7.152;2022-12-20T07:04:52;8.90;;;5.00;;
27408;SDS011;20413;50.782;7.152;2022-12-20T07:07:18;8.55;;;4.97;;
27408;SDS011;20413;50.782;7.152;2022-12-20T07:09:44;8.30;;;4.95;;
27408;SDS011;20413;50.782;7.152;2022-12-20T07:12:09;7.93;;;4.68;;
27408;SDS011;20413;50.782;7.152;2022-12-20T07:14:35;10.13;;;4.68;;
27408;SDS011;20413;50.782;7.152;2022-12-20T07:17:02;8.32;;;4.43;;
27408;SDS011;20413;50.782;7.152;2022-12-20T07:19:28;8.23;;;4.05;;
27408;SDS011;20413;50.782;7.152;2022-12-20T07:21:54;7.05;;;4.03;;
27408;SDS011;20413;50.782;7.152;2022-12-20T07:24:20;5.40;;;3.90;;
27408;SDS011;20413;50.782;7.152;2022-12-20T07:26:45;4.00;;;3.38;;
27408;SDS011;20413;50.782;7.152;2022-12-20T07:29:12;9.07;;;4.35;;
27408;SDS011;20413;50.782;7.152;2022-12-20T07:31:38;6.03;;;4.25;;
27408;SDS011;20413;50.782;7.152;2022-12-20T07:34:04;8.77;;;4.80;;
27408;SDS011;20413;50.782;7.152;2022-12-20T07:36:30;10.45;;;5.38;;
27408;SDS011;20413;50.782;7.152;2022-12-20T07:38:56;7.00;;;3.90;;
27408;SDS011;20413;50.782;7.152;2022-12-20T07:41:22;7.32;;;4.40;;
27408;SDS011;20413;50.782;7.152;2022-12-20T07:43:49;9.45;;;4.57;;
27408;SDS011;20413;50.782;7.152;2022-12-20T07:46:15;6.68;;;3.95;;
27408;SDS011;20413;50.782;7.152;2022-12-20T07:48:41;9.23;;;4.43;;
27408;SDS011;20413;50.782;7.152;2022-12-20T07:51:09;7.82;;;4.20;;
27408;SDS011;20413;50.782;7.152;2022-12-20T07:56:02;10.63;;;5.05;;
27408;SDS011;20413;50.782;7.152;2022-12-20T07:58:29;7.93;;;4.10;;
27408;SDS011;20413;50.782;7.152;2022-12-20T08:00:57;9.07;;;4.30;;
27408;SDS011;20413;50.782;7.152;2022-12-20T08:03:24;5.20;;;3.97;;
27408;SDS011;20413;50.782;7.152;2022-12-20T08:05:53;11.60;;;4.57;;
27408;SDS011;20413;50.782;7.152;2022-12-20T08:08:20;4.05;;;3.28;;
27408;SDS011;20413;50.782;7.152;2022-12-20T08:10:47;6.75;;;3.65;;
27408;SDS011;20413;50.782;7.152;2022-12-20T08:13:13;6.10;;;3.90;;
27408;SDS011;20413;50.782;7.152;2022-12-20T08:15:39;4.88;;;3.35;;
27408;SDS011;20413;50.782;7.152;2022-12-20T08:18:05;5.35;;;3.20;;
27408;SDS011;20413;50.782;7.152;2022-12-20T08:20:32;4.20;;;3.13;;
27408;SDS011;20413;50.782;7.152;2022-12-20T08:22:58;6.63;;;2.70;;
27408;SDS011;20413;50.782;7.152;2022-12-20T08:25:24;4.55;;;2.67;;
27408;SDS011;20413;50.782;7.152;2022-12-20T08:27:50;6.47;;;3.10;;
27408;SDS011;20413;50.782;7.152;2022-12-20T08:30:17;4.07;;;2.83;;
27408;SDS011;20413;50.782;7.152;2022-12-20T08:32:43;4.20;;;2.58;;
27408;SDS011;20413;50.782;7.152;2022-12-20T08:35:09;6.35;;;2.08;;
27408;SDS011;20413;50.782;7.152;2022-12-20T08:37:34;5.45;;;2.45;;
27408;SDS011;20413;50.782;7.152;2022-12-20T08:40:00;4.82;;;2.30;;
27408;SDS011;20413;50.782;7.152;2022-12-20T08:42:27;7.47;;;2.78;;
27408;SDS011;20413;50.782;7.152;2022-12-20T08:44:53;6.32;;;3.42;;
27408;SDS011;20413;50.782;7.152;2022-12-20T08:47:19;6.43;;;3.38;;
27408;SDS011;20413;50.782;7.152;2022-12-20T08:49:45;7.43;;;2.95;;
27408;SDS011;20413;50.782;7.152;2022-12-20T08:52:11;3.20;;;2.58;;
27408;SDS011;20413;50.782;7.152;2022-12-20T08:54:37;7.72;;;2.78;;
27408;SDS011;20413;50.782;7.152;2022-12-20T08:57:03;4.55;;;2.97;;
27408;SDS011;20413;50.782;7.152;2022-12-20T08:59:29;6.40;;;3.40;;
27408;SDS011;20413;50.782;7.152;2022-12-20T09:01:55;4.97;;;3.15;;
27408;SDS011;20413;50.782;7.152;2022-12-20T09:04:21;7.95;;;4.40;;
27408;SDS011;20413;50.782;7.152;2022-12-20T09:06:47;6.18;;;3.50;;
27408;SDS011;20413;50.782;7.152;2022-12-20T09:09:13;6.30;;;3.63;;
27408;SDS011;20413;50.782;7.152;2022-12-20T09:11:40;7.82;;;3.55;;
27408;SDS011;20413;50.782;7.152;2022-12-20T09:14:06;5.90;;;3.33;;
27408;SDS011;20413;50.782;7.152;2022-12-20T09:16:32;6.30;;;3.88;;
27408;SDS011;20413;50.782;7.152;2022-12-20T09:18:58;6.82;;;4.13;;
27408;SDS011;20413;50.782;7.152;2022-12-20T09:21:24;7.78;;;3.88;;
27408;SDS011;20413;50.782;7.152;2022-12-20T09:23:51;12.18;;;6.70;;
27408;SDS011;20413;50.782;7.152;2022-12-20T09:26:18;9.25;;;4.70;;
27408;SDS011;20413;50.782;7.152;2022-12-20T09:28:44;8.32;;;3.83;;
27408;SDS011;20413;50.782;7.152;2022-12-20T09:31:11;8.23;;;4.30;;
27408;SDS011;20413;50.782;7.152;2022-12-20T09:33:38;8.07;;;4.07;;
27408;SDS011;20413;50.782;7.152;2022-12-20T09:36:04;5.40;;;3.58;;
27408;SDS011;20413;50.782;7.152;2022-12-20T09:38:31;7.55;;;4.20;;
27408;SDS011;20413;50.782;7.152;2022-12-20T09:40:58;8.85;;;4.30;;
27408;SDS011;20413;50.782;7.152;2022-12-20T09:43:24;7.78;;;4.45;;
27408;SDS011;20413;50.782;7.152;2022-12-20T09:45:52;7.10;;;4.65;;
27408;SDS011;20413;50.782;7.152;2022-12-20T09:48:22;10.38;;;4.35;;
27408;SDS011;20413;50.782;7.152;2022-12-20T09:51:06;6.40;;;4.40;;
27408;SDS011;20413;50.782;7.152;2022-12-20T09:53:40;5.95;;;4.22;;
27408;SDS011;20413;50.782;7.152;2022-12-20T09:56:12;9.88;;;5.00;;
27408;SDS011;20413;50.782;7.152;2022-12-20T10:01:25;10.60;;;5.80;;
27408;SDS011;20413;50.782;7.152;2022-12-20T10:03:52;9.07;;;5.28;;
27408;SDS011;20413;50.782;7.152;2022-12-20T10:08:57;6.32;;;4.78;;
27408;SDS011;20413;50.782;7.152;2022-12-20T10:11:31;7.13;;;5.10;;
27408;SDS011;20413;50.782;7.152;2022-12-20T10:14:06;8.20;;;5.57;;
27408;SDS011;20413;50.782;7.152;2022-12-20T10:24:02;8.65;;;4.78;;
27408;SDS011;20413;50.782;7.152;2022-12-20T10:26:29;7.68;;;4.60;;
27408;SDS011;20413;50.782;7.152;2022-12-20T10:28:57;11.05;;;5.35;;
27408;SDS011;20413;50.782;7.152;2022-12-20T10:31:23;8.88;;;5.32;;
27408;SDS011;20413;50.782;7.152;2022-12-20T10:33:49;10.13;;;5.25;;
27408;SDS011;20413;50.782;7.152;2022-12-20T10:36:26;7.15;;;4.85;;
27408;SDS011;20413;50.782;7.152;2022-12-20T10:39:06;10.60;;;4.83;;
27408;SDS011;20413;50.782;7.152;2022-12-20T10:41:33;6.05;;;4.18;;
27408;SDS011;20413;50.782;7.152;2022-12-20T10:46:49;7.05;;;4.50;;
27408;SDS011;20413;50.782;7.152;2022-12-20T10:49:23;5.75;;;3.80;;
27408;SDS011;20413;50.782;7.152;2022-12-20T10:51:52;5.63;;;3.83;;
27408;SDS011;20413;50.782;7.152;2022-12-20T10:54:23;7.65;;;4.38;;
27408;SDS011;20413;50.782;7.152;2022-12-20T10:56:59;5.90;;;3.60;;
27408;SDS011;20413;50.782;7.152;2022-12-20T10:59:28;5.25;;;3.67;;
27408;SDS011;20413;50.782;7.152;2022-12-20T11:01:55;6.20;;;3.50;;
27408;SDS011;20413;50.782;7.152;2022-12-20T11:04:32;5.38;;;3.70;;
27408;SDS011;20413;50.782;7.152;2022-12-20T11:06:59;6.93;;;3.30;;
27408;SDS011;20413;50.782;7.152;2022-12-20T11:09:32;4.85;;;3.10;;
27408;SDS011;20413;50.782;7.152;2022-12-20T11:14:25;4.32;;;3.10;;
27408;SDS011;20413;50.782;7.152;2022-12-20T11:16:52;17.52;;;9.05;;
27408;SDS011;20413;50.782;7.152;2022-12-20T11:24:48;9.75;;;5.60;;
27408;SDS011;20413;50.782;7.152;2022-12-20T11:29:56;8.50;;;5.53;;
27408;SDS011;20413;50.782;7.152;2022-12-20T11:37:25;8.48;;;5.10;;
27408;SDS011;20413;50.782;7.152;2022-12-20T11:40:10;13.20;;;5.78;;
27408;SDS011;20413;50.782;7.152;2022-12-20T11:52:42;13.38;;;6.65;;
27408;SDS011;20413;50.782;7.152;2022-12-20T11:57:44;15.02;;;8.63;;
27408;SDS011;20413;50.782;7.152;2022-12-20T12:00:12;17.30;;;9.60;;
27408;SDS011;20413;50.782;7.152;2022-12-20T12:02:47;13.77;;;7.30;;
27408;SDS011;20413;50.782;7.152;2022-12-20T12:05:16;10.07;;;5.60;;
27408;SDS011;20413;50.782;7.152;2022-12-20T12:07:43;7.15;;;5.28;;
27408;SDS011;20413;50.782;7.152;2022-12-20T12:10:16;7.43;;;5.20;;
27408;SDS011;20413;50.782;7.152;2022-12-20T12:12:45;9.30;;;4.65;;
27408;SDS011;20413;50.782;7.152;2022-12-20T12:17:45;9.80;;;4.20;;
27408;SDS011;20413;50.782;7.152;2022-12-20T12:22:42;14.68;;;5.85;;
27408;SDS011;20413;50.782;7.152;2022-12-20T12:25:10;2.17;;;1.90;;
27408;SDS011;20413;50.782;7.152;2022-12-20T12:27:38;3.42;;;2.00;;
27408;SDS011;20413;50.782;7.152;2022-12-20T12:30:04;4.72;;;2.58;;
27408;SDS011;20413;50.782;7.152;2022-12-20T12:32:38;4.75;;;2.90;;
27408;SDS011;20413;50.782;7.152;2022-12-20T12:35:12;3.13;;;1.85;;
27408;SDS011;20413;50.782;7.152;2022-12-20T12:45:47;5.80;;;3.00;;
27408;SDS011;20413;50.782;7.152;2022-12-20T12:48:16;3.97;;;3.10;;
27408;SDS011;20413;50.782;7.152;2022-12-20T12:50:45;4.22;;;2.33;;
27408;SDS011;20413;50.782;7.152;2022-12-20T12:53:13;4.93;;;2.30;;
27408;SDS011;20413;50.782;7.152;2022-12-20T12:58:40;10.98;;;6.00;;
27408;SDS011;20413;50.782;7.152;2022-12-20T13:00:59;23.30;;;10.07;;
27408;SDS011;20413;50.782;7.152;2022-12-20T13:11:33;8.20;;;4.45;;
27408;SDS011;20413;50.782;7.152;2022-12-20T13:16:36;6.55;;;3.78;;
27408;SDS011;20413;50.782;7.152;2022-12-20T13:19:14;5.55;;;4.38;;
27408;SDS011;20413;50.782;7.152;2022-12-20T13:21:42;7.13;;;4.68;;
27408;SDS011;20413;50.782;7.152;2022-12-20T13:24:34;11.25;;;4.13;;
27408;SDS011;20413;50.782;7.152;2022-12-20T13:27:02;10.60;;;4.25;;
27408;SDS011;20413;50.782;7.152;2022-12-20T13:29:33;11.75;;;4.50;;
27408;SDS011;20413;50.782;7.152;2022-12-20T13:31:59;8.75;;;3.40;;
27408;SDS011;20413;50.782;7.152;2022-12-20T13:34:41;8.38;;;4.32;;
27408;SDS011;20413;50.782;7.152;2022-12-20T13:37:27;8.18;;;3.95;;
27408;SDS011;20413;50.782;7.152;2022-12-20T13:39:54;6.90;;;3.47;;
27408;SDS011;20413;50.782;7.152;2022-12-20T13:42:24;6.75;;;3.55;;
27408;SDS011;20413;50.782;7.152;2022-12-20T13:44:52;5.85;;;3.38;;
27408;SDS011;20413;50.782;7.152;2022-12-20T13:47:27;4.30;;;3.17;;
27408;SDS011;20413;50.782;7.152;2022-12-20T13:49:55;6.15;;;3.83;;
27408;SDS011;20413;50.782;7.152;2022-12-20T13:52:29;5.90;;;3.15;;
27408;SDS011;20413;50.782;7.152;2022-12-20T13:54:57;6.47;;;3.10;;
27408;SDS011;20413;50.782;7.152;2022-12-20T13:57:28;4.97;;;2.30;;
27408;SDS011;20413;50.782;7.152;2022-12-20T13:59:56;4.00;;;2.80;;
27408;SDS011;20413;50.782;7.152;2022-12-20T14:02:23;5.75;;;2.80;;
27408;SDS011;20413;50.782;7.152;2022-12-20T14:04:57;8.10;;;4.13;;
27408;SDS011;20413;50.782;7.152;2022-12-20T14:07:24;4.18;;;3.72;;
27408;SDS011;20413;50.782;7.152;2022-12-20T14:09:54;6.72;;;5.20;;
27408;SDS011;20413;50.782;7.152;2022-12-20T14:12:21;7.55;;;5.25;;
27408;SDS011;20413;50.782;7.152;2022-12-20T14:14:48;7.20;;;5.30;;
27408;SDS011;20413;50.782;7.152;2022-12-20T14:17:21;10.70;;;6.00;;
27408;SDS011;20413;50.782;7.152;2022-12-20T14:22:33;11.38;;;8.85;;
27408;SDS011;20413;50.782;7.152;2022-12-20T14:25:00;15.85;;;10.05;;
27408;SDS011;20413;50.782;7.152;2022-12-20T14:27:27;17.27;;;10.23;;
27408;SDS011;20413;50.782;7.152;2022-12-20T14:29:55;24.67;;;13.05;;
27408;SDS011;20413;50.782;7.152;2022-12-20T14:32:21;18.05;;;9.40;;
27408;SDS011;20413;50.782;7.152;2022-12-20T14:34:47;10.00;;;5.40;;
27408;SDS011;20413;50.782;7.152;2022-12-20T14:39:56;5.63;;;2.95;;
27408;SDS011;20413;50.782;7.152;2022-12-20T14:42:23;4.00;;;2.22;;
27408;SDS011;20413;50.782;7.152;2022-12-20T14:45:00;3.80;;;1.80;;
27408;SDS011;20413;50.782;7.152;2022-12-20T14:47:26;3.17;;;1.45;;
27408;SDS011;20413;50.782;7.152;2022-12-20T14:49:53;3.72;;;1.85;;
27408;SDS011;20413;50.782;7.152;2022-12-20T14:55:01;2.92;;;1.58;;
27408;SDS011;20413;50.782;7.152;2022-12-20T15:02:35;4.32;;;2.00;;
27408;SDS011;20413;50.782;7.152;2022-12-20T15:05:08;3.42;;;1.58;;
27408;SDS011;20413;50.782;7.152;2022-12-20T15:07:34;2.95;;;1.95;;
27408;SDS011;20413;50.782;7.152;2022-12-20T15:10:00;3.53;;;1.85;;
27408;SDS011;20413;50.782;7.152;2022-12-20T15:12:26;4.28;;;1.80;;
27408;SDS011;20413;50.782;7.152;2022-12-20T15:14:52;3.72;;;1.73;;
27408;SDS011;20413;50.782;7.152;2022-12-20T15:17:18;10.07;;;5.35;;
27408;SDS011;20413;50.782;7.152;2022-12-20T15:19:44;13.25;;;6.93;;
27408;SDS011;20413;50.782;7.152;2022-12-20T15:22:13;15.43;;;7.53;;
27408;SDS011;20413;50.782;7.152;2022-12-20T15:24:40;13.18;;;8.38;;
27408;SDS011;20413;50.782;7.152;2022-12-20T15:27:11;19.13;;;8.40;;
27408;SDS011;20413;50.782;7.152;2022-12-20T15:29:37;19.05;;;10.90;;
27408;SDS011;20413;50.782;7.152;2022-12-20T15:32:24;36.83;;;15.82;;
27408;SDS011;20413;50.782;7.152;2022-12-20T15:34:49;36.17;;;16.17;;
27408;SDS011;20413;50.782;7.152;2022-12-20T15:37:15;28.42;;;14.20;;
27408;SDS011;20413;50.782;7.152;2022-12-20T15:39:41;21.85;;;9.95;;
27408;SDS011;20413;50.782;7.152;2022-12-20T15:42:12;20.13;;;12.25;;
27408;SDS011;20413;50.782;7.152;2022-12-20T15:44:40;16.95;;;10.38;;
27408;SDS011;20413;50.782;7.152;2022-12-20T15:47:08;17.58;;;10.30;;
27408;SDS011;20413;50.782;7.152;2022-12-20T15:49:35;23.42;;;12.95;;
27408;SDS011;20413;50.782;7.152;2022-12-20T15:52:01;20.20;;;11.70;;
27408;SDS011;20413;50.782;7.152;2022-12-20T15:54:28;24.95;;;12.65;;
27408;SDS011;20413;50.782;7.152;2022-12-20T15:56:55;19.17;;;12.13;;
27408;SDS011;20413;50.782;7.152;2022-12-20T15:59:21;10.45;;;6.18;;
27408;SDS011;20413;50.782;7.152;2022-12-20T16:01:47;9.95;;;5.70;;
27408;SDS011;20413;50.782;7.152;2022-12-20T16:04:15;11.10;;;5.90;;
27408;SDS011;20413;50.782;7.152;2022-12-20T16:06:42;6.45;;;4.03;;
27408;SDS011;20413;50.782;7.152;2022-12-20T16:09:08;5.00;;;2.65;;
27408;SDS011;20413;50.782;7.152;2022-12-20T16:11:35;5.03;;;2.70;;
27408;SDS011;20413;50.782;7.152;2022-12-20T16:14:01;4.93;;;2.22;;
27408;SDS011;20413;50.782;7.152;2022-12-20T16:16:34;4.72;;;2.80;;
27408;SDS011;20413;50.782;7.152;2022-12-20T16:19:01;6.75;;;2.78;;
27408;SDS011;20413;50.782;7.152;2022-12-20T16:21:31;6.25;;;3.00;;
27408;SDS011;20413;50.782;7.152;2022-12-20T16:23:57;5.68;;;2.15;;
27408;SDS011;20413;50.782;7.152;2022-12-20T16:26:24;3.85;;;2.00;;
27408;SDS011;20413;50.782;7.152;2022-12-20T16:28:51;3.05;;;2.20;;
27408;SDS011;20413;50.782;7.152;2022-12-20T16:33:43;2.53;;;2.33;;
27408;SDS011;20413;50.782;7.152;2022-12-20T16:36:10;4.10;;;2.00;;
27408;SDS011;20413;50.782;7.152;2022-12-20T16:38:36;2.25;;;1.80;;
27408;SDS011;20413;50.782;7.152;2022-12-20T16:41:12;3.65;;;1.88;;